Time;durP1;ratioP1;P1;durP2;ratioP2;P2;SDS_P1;SDS_P2;PMS_P1;PMS_P2;Temp;Humidity;BMP_temperature;BMP_pressure;BME280_temperature;BME280_humidity;BME280_pressure;Samples;Min_cycle;Max_cycle;Signal;HPM_P1;HPM_P2
2023/11/22 00:02:28;;;;;;;23.60;11.90;;;;;;;0.73;82.72;99166.10;105200;1261;107404;-72
2023/11/22 00:04:57;;;;;;;22.70;11.40;;;;;;;0.72;82.63;99169.98;105430;1259;96620;-74
2023/11/22 00:07:29;;;;;;;23.10;10.80;;;;;;;0.74;82.64;99168.52;105258;1262;96447;-73
2023/11/22 00:09:57;;;;;;;21.70;11.00;;;;;;;0.80;82.92;99166.61;105396;1262;108375;-75
2023/11/22 00:12:26;;;;;;;25.90;12.60;;;;;;;0.81;82.53;99168.49;104727;1264;96572;-73
2023/11/22 00:14:54;;;;;;;23.80;11.10;;;;;;;0.78;82.46;99173.83;104970;1262;107677;-74
2023/11/22 00:17:23;;;;;;;23.60;11.90;;;;;;;0.75;82.72;99180.73;104857;1262;96642;-74
2023/11/22 00:19:51;;;;;;;26.40;13.00;;;;;;;0.76;82.74;99183.32;105039;1262;96558;-73
2023/11/22 00:22:19;;;;;;;24.80;12.60;;;;;;;0.74;82.72;99192.09;104887;1262;109117;-72
2023/11/22 00:24:50;;;;;;;24.90;13.00;;;;;;;0.69;82.46;99194.34;105071;1262;96640;-74
2023/11/22 00:27:18;;;;;;;24.10;12.10;;;;;;;0.60;82.28;99198.63;104875;1260;107731;-73
2023/11/22 00:29:46;;;;;;;25.20;13.00;;;;;;;0.55;82.50;99200.70;105019;1262;96594;-73
2023/11/22 00:32:14;;;;;;;26.20;12.70;;;;;;;0.52;82.47;99198.67;105063;1262;96623;-73
2023/11/22 00:34:42;;;;;;;25.80;13.40;;;;;;;0.52;82.61;99204.80;105071;1259;110478;-73
2023/11/22 00:37:10;;;;;;;28.30;12.80;;;;;;;0.42;82.50;99205.07;104898;1262;96614;-73
2023/11/22 00:39:38;;;;;;;24.80;13.00;;;;;;;0.44;82.54;99207.63;105072;1280;107341;-73
2023/11/22 00:42:06;;;;;;;23.80;12.00;;;;;;;0.43;82.58;99207.30;105047;1259;96607;-73
2023/11/22 00:44:36;;;;;;;22.30;11.20;;;;;;;0.43;82.68;99214.29;104864;1262;97893;-73
2023/11/22 00:47:04;;;;;;;24.80;12.20;;;;;;;0.40;82.38;99215.60;105130;1259;108896;-73
2023/11/22 00:49:32;;;;;;;28.20;13.90;;;;;;;0.35;82.53;99217.31;105036;1262;97293;-73
2023/11/22 00:52:00;;;;;;;24.70;13.10;;;;;;;0.33;82.61;99217.20;104833;1262;107648;-72
2023/11/22 00:54:30;;;;;;;23.80;11.90;;;;;;;0.31;82.54;99219.34;104968;1259;96658;-72
2023/11/22 00:56:58;;;;;;;24.20;12.40;;;;;;;0.31;82.84;99223.17;105012;1262;96595;-74
2023/11/22 00:59:26;;;;;;;23.40;12.10;;;;;;;0.35;82.76;99227.44;105090;1259;110073;-74
2023/11/22 01:01:55;;;;;;;26.50;14.30;;;;;;;0.41;82.82;99228.48;104997;1262;96748;-73
2023/11/22 01:04:23;;;;;;;35.00;14.60;;;;;;;0.42;82.55;99228.09;104854;1259;107443;-74
2023/11/22 01:06:51;;;;;;;28.20;13.60;;;;;;;0.38;82.46;99232.77;104971;1259;96715;-74
2023/11/22 01:09:18;;;;;;;25.20;13.10;;;;;;;0.34;82.52;99233.73;105002;1262;96770;-73
2023/11/22 01:11:47;;;;;;;25.20;12.00;;;;;;;0.31;82.40;99238.71;105157;1259;108675;-73
2023/11/22 01:14:15;;;;;;;26.60;11.80;;;;;;;0.31;82.54;99249.00;104979;1262;96581;-74
2023/11/22 01:16:43;;;;;;;27.30;13.60;;;;;;;0.27;82.51;99251.91;105289;1261;106187;-73
2023/11/22 01:19:11;;;;;;;26.00;12.50;;;;;;;0.22;82.49;99258.84;105168;1260;96684;-75
2023/11/22 01:21:39;;;;;;;25.10;11.40;;;;;;;0.18;82.60;99257.90;104955;1265;96657;-74
2023/11/22 01:24:07;;;;;;;26.80;12.90;;;;;;;0.20;82.65;99258.38;105218;1262;109983;-74
2023/11/22 01:26:35;;;;;;;27.50;13.20;;;;;;;0.20;82.55;99261.17;104913;1261;96595;-75
2023/11/22 01:29:06;;;;;;;24.50;12.30;;;;;;;0.21;82.59;99262.88;105005;1258;107485;-73
2023/11/22 01:31:34;;;;;;;26.90;13.50;;;;;;;0.20;82.47;99270.41;105165;1262;97767;-73
2023/11/22 01:34:03;;;;;;;27.90;13.50;;;;;;;0.15;82.53;99270.70;104908;1262;97956;-73
2023/11/22 01:36:34;;;;;;;26.50;13.10;;;;;;;0.14;82.56;99272.13;105048;1262;108645;-74
2023/11/22 01:39:02;;;;;;;26.80;14.00;;;;;;;0.12;82.71;99276.02;104951;1260;96607;-77
2023/11/22 01:41:30;;;;;;;25.30;13.30;;;;;;;0.10;82.48;99279.93;105034;1262;107687;-72
2023/11/22 01:43:58;;;;;;;28.20;13.60;;;;;;;0.07;82.56;99278.23;105028;1263;96627;-74
2023/11/22 01:46:28;;;;;;;28.20;13.80;;;;;;;0.03;82.33;99283.59;105068;1262;96687;-74
2023/11/22 01:48:57;;;;;;;26.70;13.10;;;;;;;-0.04;82.29;99280.44;105017;1256;109853;-74
2023/11/22 01:51:25;;;;;;;25.30;12.30;;;;;;;-0.05;82.46;99280.84;104889;1265;96580;-73
2023/11/22 01:53:56;;;;;;;27.20;12.90;;;;;;;-0.05;82.56;99279.92;105076;1262;107169;-75
2023/11/22 01:56:26;;;;;;;25.00;13.20;;;;;;;-0.03;82.53;99277.80;105029;1258;96712;-73
2023/11/22 01:58:56;;;;;;;26.30;12.90;;;;;;;-0.01;82.66;99276.89;105009;1260;96613;-73
2023/11/22 02:01:27;;;;;;;26.20;13.10;;;;;;;0.01;82.62;99277.70;105111;1257;109939;-73
2023/11/22 02:03:55;;;;;;;25.00;13.20;;;;;;;-0.03;82.45;99276.24;105080;1266;96728;-73
2023/11/22 02:06:23;;;;;;;25.70;13.50;;;;;;;-0.08;82.42;99282.30;105356;1257;107146;-73
2023/11/22 02:08:52;;;;;;;22.90;11.10;;;;;;;-0.06;82.60;99286.77;104888;1262;97752;-73
2023/11/22 02:11:24;;;;;;;24.70;12.30;;;;;;;-0.05;82.63;99292.16;105077;1262;97836;-73
2023/11/22 02:13:52;;;;;;;26.00;13.50;;;;;;;-0.08;82.35;99295.38;104999;1262;109569;-74
2023/11/22 02:16:20;;;;;;;26.20;12.00;;;;;;;-0.13;82.40;99299.34;104878;1262;96713;-74
2023/11/22 02:18:48;;;;;;;24.60;12.80;;;;;;;-0.21;82.27;99302.48;105066;1262;106753;-74
2023/11/22 02:21:17;;;;;;;24.30;11.60;;;;;;;-0.21;82.41;99301.81;105216;1262;97910;-74
2023/11/22 02:23:46;;;;;;;24.80;12.30;;;;;;;-0.25;82.49;99305.89;104806;1262;97955;-74
2023/11/22 02:26:17;;;;;;;26.50;12.20;;;;;;;-0.27;82.42;99307.54;104883;1259;109936;-73
2023/11/22 02:28:46;;;;;;;24.70;12.20;;;;;;;-0.35;82.33;99309.27;105033;1259;96559;-73
2023/11/22 02:31:15;;;;;;;27.40;13.90;;;;;;;-0.37;82.45;99310.70;104976;1262;107693;-73
2023/11/22 02:33:43;;;;;;;26.70;13.50;;;;;;;-0.37;82.37;99311.58;105106;1262;96614;-73
2023/11/22 02:36:12;;;;;;;24.40;11.90;;;;;;;-0.39;82.36;99318.94;105259;1260;96689;-76
2023/11/22 02:38:40;;;;;;;25.30;12.00;;;;;;;-0.38;82.51;99327.29;104974;1260;109537;-73
2023/11/22 02:41:09;;;;;;;27.50;13.50;;;;;;;-0.40;82.39;99334.13;105132;1258;96581;-74
2023/11/22 02:43:37;;;;;;;23.60;11.50;;;;;;;-0.51;82.31;99335.26;105078;1262;107271;-73
2023/11/22 02:46:05;;;;;;;26.50;13.70;;;;;;;-0.55;82.32;99337.09;105112;1262;96721;-72
2023/11/22 02:48:33;;;;;;;25.80;12.80;;;;;;;-0.56;82.39;99340.41;105065;1262;96601;-73
2023/11/22 02:51:01;;;;;;;24.80;11.70;;;;;;;-0.56;82.43;99344.25;105034;1257;109962;-74
2023/11/22 02:53:30;;;;;;;26.70;13.20;;;;;;;-0.60;82.41;99348.16;105113;1260;96518;-74
2023/11/22 02:56:01;;;;;;;25.60;12.30;;;;;;;-0.60;82.41;99354.27;105019;1262;107489;-73
2023/11/22 02:58:30;;;;;;;25.30;12.20;;;;;;;-0.60;82.56;99361.23;104819;1259;97193;-76
2023/11/22 03:00:59;;;;;;;23.60;12.00;;;;;;;-0.65;82.37;99364.32;105006;1260;97070;-74
2023/11/22 03:03:28;;;;;;;24.50;12.00;;;;;;;-0.69;82.22;99370.33;105038;1262;109695;-73
2023/11/22 03:05:56;;;;;;;25.40;13.20;;;;;;;-0.72;82.35;99369.69;104873;1262;96687;-73
2023/11/22 03:08:24;;;;;;;25.90;12.70;;;;;;;-0.75;82.46;99374.80;105184;1260;107429;-74
2023/11/22 03:10:53;;;;;;;26.90;13.10;;;;;;;-0.76;82.47;99371.52;105055;1261;96606;-74
2023/11/22 03:13:20;;;;;;;25.50;12.40;;;;;;;-0.75;82.41;99373.23;105314;1262;96790;-73
2023/11/22 03:15:48;;;;;;;23.90;11.80;;;;;;;-0.76;82.38;99380.92;104972;1263;109603;-74
2023/11/22 03:18:16;;;;;;;25.50;12.90;;;;;;;-0.74;82.47;99383.66;105083;1259;96668;-73
2023/11/22 03:20:45;;;;;;;28.30;13.10;;;;;;;-0.76;82.32;99383.52;104992;1262;107675;-73
2023/11/22 03:23:13;;;;;;;26.20;12.90;;;;;;;-0.76;82.26;99385.63;104961;1262;96794;-74
2023/11/22 03:25:40;;;;;;;25.70;12.50;;;;;;;-0.77;82.28;99390.16;105021;1262;96626;-77
2023/11/22 03:28:08;;;;;;;25.00;12.50;;;;;;;-0.77;82.28;99395.74;105213;1259;110398;-73
2023/11/22 03:30:37;;;;;;;25.60;12.30;;;;;;;-0.71;82.58;99405.72;105331;1259;97835;-75
2023/11/22 03:33:05;;;;;;;27.90;14.00;;;;;;;-0.70;82.57;99399.27;106784;1261;106951;-73
2023/11/22 03:35:33;;;;;;;27.40;13.50;;;;;;;-0.69;82.41;99403.40;106858;1259;96628;-73
2023/11/22 03:38:01;;;;;;;30.00;15.30;;;;;;;-0.70;82.41;99410.04;105299;1262;96554;-73
2023/11/22 03:40:29;;;;;;;27.00;14.30;;;;;;;-0.70;82.35;99416.67;105264;1261;109778;-75
2023/11/22 03:42:56;;;;;;;31.30;13.70;;;;;;;-0.73;82.36;99424.05;104875;1260;96612;-73
2023/11/22 03:45:24;;;;;;;26.40;12.90;;;;;;;-0.73;82.28;99426.14;105354;1257;107431;-73
2023/11/22 03:47:53;;;;;;;25.70;10.90;;;;;;;-0.76;82.10;99425.69;105159;1262;96621;-73
2023/11/22 03:50:21;;;;;;;25.20;12.20;;;;;;;-0.80;82.18;99427.66;105241;1260;96656;-74
2023/11/22 03:52:49;;;;;;;27.10;12.90;;;;;;;-0.80;82.32;99430.80;105069;1262;109947;-75
2023/11/22 03:55:17;;;;;;;26.10;13.30;;;;;;;-0.81;82.30;99434.64;104985;1261;96518;-74
2023/11/22 03:57:45;;;;;;;25.10;12.00;;;;;;;-0.79;82.20;99439.14;105147;1262;107670;-73
2023/11/22 04:00:13;;;;;;;26.70;11.70;;;;;;;-0.79;82.05;99442.10;104944;1262;97562;-74
2023/11/22 04:02:41;;;;;;;27.40;12.90;;;;;;;-0.85;82.08;99443.62;105244;1262;96596;-74
2023/11/22 04:05:11;;;;;;;26.10;11.80;;;;;;;-0.88;82.00;99449.43;105353;1262;109673;-73
2023/11/22 04:07:39;;;;;;;24.30;11.30;;;;;;;-0.84;82.47;99456.85;105272;1260;96636;-73
2023/11/22 04:10:08;;;;;;;24.20;11.80;;;;;;;-0.83;82.36;99463.62;105022;1257;107754;-73
2023/11/22 04:12:37;;;;;;;28.90;12.80;;;;;;;-0.83;82.32;99466.23;104927;1262;97479;-73
2023/11/22 04:15:08;;;;;;;25.00;11.60;;;;;;;-0.83;82.34;99473.37;105238;1259;96601;-73
2023/11/22 04:17:37;;;;;;;26.80;12.60;;;;;;;-0.84;82.26;99483.13;104942;1263;110079;-73
2023/11/22 04:20:09;;;;;;;25.00;12.10;;;;;;;-0.84;82.22;99482.96;105087;1262;96960;-77
2023/11/22 04:22:37;;;;;;;24.20;11.40;;;;;;;-0.84;82.20;99489.23;105174;1261;107342;-73
2023/11/22 04:25:05;;;;;;;26.80;11.60;;;;;;;-0.84;82.33;99490.10;104997;1262;96587;-74
2023/11/22 04:27:33;;;;;;;28.10;13.10;;;;;;;-0.86;82.20;99493.63;105198;1260;96736;-72
2023/11/22 04:30:01;;;;;;;29.00;13.60;;;;;;;-0.89;82.03;99498.89;105155;1261;109949;-73
2023/11/22 04:32:32;;;;;;;28.00;13.30;;;;;;;-0.91;82.10;99505.90;105236;1260;96551;-72
2023/11/22 04:35:04;;;;;;;27.50;12.20;;;;;;;-0.95;81.94;99513.98;105764;1260;107606;-73
2023/11/22 04:37:32;;;;;;;25.70;11.10;;;;;;;-0.99;81.93;99516.98;105290;1262;97832;-76
2023/11/22 04:40:01;;;;;;;27.50;11.90;;;;;;;-1.00;82.02;99522.95;105178;1259;96604;-73
2023/11/22 04:42:29;;;;;;;24.20;11.60;;;;;;;-1.04;81.78;99524.59;105159;1262;110553;-73
2023/11/22 04:44:57;;;;;;;24.90;11.30;;;;;;;-1.04;81.97;99525.98;105164;1260;96617;-73
2023/11/22 04:47:25;;;;;;;24.10;11.20;;;;;;;-1.01;81.96;99535.67;105207;1262;106301;-74
2023/11/22 04:49:53;;;;;;;26.30;12.20;;;;;;;-1.02;81.80;99544.77;105085;1262;96566;-73
2023/11/22 04:52:21;;;;;;;25.20;11.70;;;;;;;-1.07;81.83;99554.59;105068;1267;96721;-78
2023/11/22 04:54:49;;;;;;;27.40;12.80;;;;;;;-1.09;81.85;99558.79;105034;1264;108916;-78
2023/11/22 04:57:17;;;;;;;25.30;12.10;;;;;;;-1.11;81.70;99562.13;105325;1256;96620;-76
2023/11/22 04:59:48;;;;;;;25.70;11.70;;;;;;;-1.08;81.88;99565.39;105169;1259;107780;-76
2023/11/22 05:02:16;;;;;;;23.30;9.90;;;;;;;-1.02;82.25;99568.78;105069;1258;96629;-74
2023/11/22 05:04:48;;;;;;;24.00;11.30;;;;;;;-0.99;82.19;99576.38;104863;1262;96629;-78
2023/11/22 05:07:16;;;;;;;23.70;11.20;;;;;;;-1.00;82.04;99580.56;104855;1262;109488;-76
2023/11/22 05:09:44;;;;;;;25.00;11.40;;;;;;;-1.03;81.79;99583.23;105053;1262;96577;-72
2023/11/22 05:12:11;;;;;;;23.90;11.60;;;;;;;-1.04;82.01;99591.61;105198;1261;107288;-81
2023/11/22 05:14:40;;;;;;;27.90;13.20;;;;;;;-1.04;81.89;99597.54;104931;1264;96694;-74
2023/11/22 05:17:08;;;;;;;22.40;10.50;;;;;;;-1.10;81.86;99607.20;105259;1260;96568;-74
2023/11/22 05:19:37;;;;;;;24.90;12.30;;;;;;;-1.11;81.93;99612.09;104833;1260;110411;-73
2023/11/22 05:22:05;;;;;;;24.40;10.80;;;;;;;-1.14;81.74;99614.56;105154;1262;96620;-73
2023/11/22 05:24:34;;;;;;;29.70;13.90;;;;;;;-1.14;81.97;99618.05;105196;1262;108203;-75
2023/11/22 05:27:03;;;;;;;29.10;13.80;;;;;;;-1.14;81.99;99625.53;105191;1262;97865;-78
2023/11/22 05:29:34;;;;;;;27.40;13.30;;;;;;;-1.16;81.98;99631.13;105347;1258;97976;-76
2023/11/22 05:32:17;;;;;;;28.20;14.20;;;;;;;-1.23;81.53;99629.15;105235;1262;109514;-76
2023/11/22 05:34:46;;;;;;;24.80;12.80;;;;;;;-1.27;81.95;99631.30;105005;1278;96596;-77
2023/11/22 05:37:14;;;;;;;26.80;13.90;;;;;;;-1.26;81.98;99636.16;104882;1262;108079;-77
2023/11/22 05:39:41;;;;;;;29.50;13.20;;;;;;;-1.27;81.78;99638.44;105225;1264;96664;-76
2023/11/22 05:42:09;;;;;;;24.10;10.80;;;;;;;-1.33;81.73;99641.31;105095;1263;96718;-76
2023/11/22 05:44:37;;;;;;;26.30;13.10;;;;;;;-1.30;82.00;99647.02;105156;1259;110010;-76
2023/11/22 05:47:05;;;;;;;25.80;12.80;;;;;;;-1.27;82.08;99650.98;106822;1262;97533;-81
2023/11/22 05:49:36;;;;;;;28.70;13.40;;;;;;;-1.21;81.90;99659.04;105199;1262;108033;-82
2023/11/22 05:52:04;;;;;;;24.80;11.90;;;;;;;-1.19;81.97;99667.55;105139;1262;97554;-83
2023/11/22 05:54:32;;;;;;;29.50;14.10;;;;;;;-1.15;81.99;99672.38;106982;1263;285295;-75
2023/11/22 05:57:00;;;;;;;31.40;15.60;;;;;;;-1.14;81.82;99673.92;105620;1262;109530;-75
2023/11/22 05:59:28;;;;;;;29.60;14.00;;;;;;;-1.15;81.65;99680.55;105036;1271;96646;-75
2023/11/22 06:01:56;;;;;;;27.60;12.90;;;;;;;-1.17;81.66;99683.20;104785;1263;105909;-76
2023/11/22 06:04:24;;;;;;;28.90;13.70;;;;;;;-1.16;81.79;99689.45;104815;1259;96688;-75
2023/11/22 06:06:53;;;;;;;29.50;14.90;;;;;;;-1.14;81.90;99693.41;105258;1262;96660;-79
2023/11/22 06:09:22;;;;;;;33.30;16.40;;;;;;;-1.13;81.75;99695.31;105042;1258;109855;-82
2023/11/22 06:11:51;;;;;;;33.30;16.60;;;;;;;-1.15;81.71;99703.35;105342;1259;96722;-81
2023/11/22 06:14:23;;;;;;;32.00;16.20;;;;;;;-1.13;81.84;99704.89;105331;1278;107789;-80
2023/11/22 06:16:52;;;;;;;28.90;14.20;;;;;;;-1.08;81.89;99713.00;105196;1262;96614;-79
2023/11/22 06:19:20;;;;;;;33.70;16.70;;;;;;;-1.09;81.64;99714.07;105223;1260;96688;-80
2023/11/22 06:21:51;;;;;;;27.50;14.30;;;;;;;-1.13;81.77;99715.34;105553;1264;109845;-80
2023/11/22 06:24:22;;;;;;;31.60;15.20;;;;;;;-1.13;81.73;99715.52;105321;1259;96575;-80
2023/11/22 06:26:51;;;;;;;28.30;13.50;;;;;;;-1.11;82.12;99722.27;105347;1265;107501;-79
2023/11/22 06:29:21;;;;;;;29.60;13.20;;;;;;;-1.04;82.01;99725.48;105472;1257;97922;-79
2023/11/22 06:31:49;;;;;;;32.10;14.90;;;;;;;-1.01;82.06;99726.81;105275;1260;96606;-79
2023/11/22 06:34:18;;;;;;;31.30;14.90;;;;;;;-1.03;81.63;99733.48;105934;1260;109332;-79
2023/11/22 06:36:46;;;;;;;33.40;15.10;;;;;;;-1.08;81.64;99735.11;105891;1258;96661;-80
2023/11/22 06:39:17;;;;;;;34.00;16.90;;;;;;;-1.08;81.81;99737.03;104972;1262;107652;-80
2023/11/22 06:41:45;;;;;;;35.50;17.90;;;;;;;-1.06;81.90;99739.60;105056;1273;96609;-80
2023/11/22 06:44:14;;;;;;;33.30;16.10;;;;;;;-1.04;81.80;99745.85;105281;1259;96640;-79
2023/11/22 06:46:42;;;;;;;36.40;17.70;;;;;;;-1.06;81.96;99751.09;105134;1259;109418;-80
2023/11/22 06:49:12;;;;;;;35.90;17.00;;;;;;;-1.07;81.80;99751.98;105311;1261;96568;-80
2023/11/22 06:51:40;;;;;;;32.80;16.50;;;;;;;-1.08;81.86;99757.22;105314;1265;107567;-80
2023/11/22 06:54:10;;;;;;;34.80;18.70;;;;;;;-1.07;81.84;99758.77;105236;1262;96524;-80
2023/11/22 06:56:38;;;;;;;31.10;15.30;;;;;;;-1.12;81.78;99759.52;104984;1263;96577;-80
2023/11/22 06:59:09;;;;;;;31.00;15.20;;;;;;;-1.16;81.44;99766.89;105242;1262;109425;-80
2023/11/22 07:01:39;;;;;;;30.80;14.30;;;;;;;-1.15;81.80;99769.15;105390;1273;96526;-79
2023/11/22 07:04:07;;;;;;;33.80;18.00;;;;;;;-1.14;81.69;99773.48;104772;1274;109156;-80
2023/11/22 07:06:40;;;;;;;40.00;18.90;;;;;;;-1.16;81.61;99771.41;105240;1262;97538;-80
2023/11/22 07:09:11;;;;;;;40.10;19.60;;;;;;;-1.23;81.78;99771.88;105100;1265;97890;-80
2023/11/22 07:11:44;;;;;;;38.10;18.50;;;;;;;-1.28;81.45;99771.94;105147;1259;108616;-79
2023/11/22 07:14:14;;;;;;;36.40;18.70;;;;;;;-1.30;81.82;99776.83;105207;1261;96584;-79
2023/11/22 07:16:42;;;;;;;38.20;20.40;;;;;;;-1.34;81.66;99783.84;105150;1274;109330;-80
2023/11/22 07:19:13;;;;;;;46.60;21.40;;;;;;;-1.38;81.77;99787.18;104989;1263;96664;-79
2023/11/22 07:21:41;;;;;;;57.30;28.90;;;;;;;-1.38;81.82;99788.41;104810;1263;97932;-80
2023/11/22 07:24:09;;;;;;;47.10;23.40;;;;;;;-1.43;81.87;99790.21;104819;1273;109024;-79
2023/11/22 07:26:37;;;;;;;45.80;23.10;;;;;;;-1.43;81.96;99790.55;104933;1262;96609;-79
2023/11/22 07:29:07;;;;;;;42.40;22.20;;;;;;;-1.43;81.81;99795.09;104752;1273;108235;-79
2023/11/22 07:31:39;;;;;;;35.90;18.60;;;;;;;-1.38;82.02;99800.58;105020;1259;96718;-81
2023/11/22 07:34:08;;;;;;;38.30;16.90;;;;;;;-1.34;82.08;99799.33;105166;1257;96694;-80
2023/11/22 07:36:41;;;;;;;36.70;17.10;;;;;;;-1.33;81.71;99802.79;105006;1262;108987;-79
2023/11/22 07:39:11;;;;;;;39.30;18.90;;;;;;;-1.41;81.66;99801.14;105011;1263;97673;-80
2023/11/22 07:41:41;;;;;;;36.00;18.80;;;;;;;-1.38;81.79;99804.94;105246;1273;107037;-80
2023/11/22 07:44:10;;;;;;;159.20;72.80;;;;;;;-1.39;81.83;99804.94;105351;1264;96600;-80
2023/11/22 07:46:45;;;;;;;74.90;36.50;;;;;;;-1.40;81.92;99811.91;105143;1262;96578;-80
2023/11/22 07:49:13;;;;;;;58.30;28.90;;;;;;;-1.36;81.89;99814.47;105182;1270;109939;-80
2023/11/22 07:51:44;;;;;;;180.90;72.10;;;;;;;-1.39;81.72;99813.83;105260;1265;96644;-80
2023/11/22 07:54:16;;;;;;;343.50;142.00;;;;;;;-1.44;81.54;99811.80;105004;1265;107435;-80
2023/11/22 07:56:44;;;;;;;249.20;102.70;;;;;;;-1.46;81.67;99815.65;104969;1263;96675;-82
2023/11/22 07:59:13;;;;;;;194.10;84.80;;;;;;;-1.50;81.71;99816.90;105305;1262;96696;-79
2023/11/22 08:01:47;;;;;;;109.80;46.30;;;;;;;-1.53;81.57;99821.63;105238;1264;109519;-79
2023/11/22 08:04:20;;;;;;;65.60;32.60;;;;;;;-1.55;81.84;99825.65;105338;1264;96628;-80
2023/11/22 08:06:49;;;;;;;56.80;30.70;;;;;;;-1.55;81.80;99831.75;105360;1258;107644;-80
2023/11/22 08:09:19;;;;;;;84.30;30.80;;;;;;;-1.54;81.87;99838.16;105446;1262;97836;-80
2023/11/22 08:11:52;;;;;;;62.10;25.00;;;;;;;-1.51;81.88;99839.88;105304;1262;96618;-81
2023/11/22 08:14:27;;;;;;;36.10;16.90;;;;;;;-1.47;82.10;99848.89;105501;1262;109814;-80
2023/11/22 08:16:58;;;;;;;29.70;14.60;;;;;;;-1.44;81.95;99860.67;104813;1272;97916;-79
2023/11/22 08:19:27;;;;;;;28.80;13.50;;;;;;;-1.47;81.59;99867.86;105177;1266;107718;-80
2023/11/22 08:21:57;;;;;;;26.10;12.50;;;;;;;-1.46;81.98;99863.32;105206;1262;97925;-80
2023/11/22 08:24:25;;;;;;;28.70;13.60;;;;;;;-1.40;81.98;99862.20;105169;1265;97535;-80
2023/11/22 08:26:54;;;;;;;25.80;13.10;;;;;;;-1.40;81.86;99870.71;105239;1260;110024;-81
2023/11/22 08:29:24;;;;;;;30.20;13.00;;;;;;;-1.45;81.75;99873.39;105358;1263;97850;-81
2023/11/22 08:31:58;;;;;;;28.30;13.10;;;;;;;-1.47;81.70;99881.59;105266;1274;107194;-80
2023/11/22 08:34:28;;;;;;;28.90;14.70;;;;;;;-1.45;81.67;99880.52;105197;1263;96630;-80
2023/11/22 08:37:00;;;;;;;31.60;14.50;;;;;;;-1.42;81.84;99886.40;104733;1263;96601;-80
2023/11/22 08:39:29;;;;;;;31.60;15.30;;;;;;;-1.39;81.69;99889.34;104980;1265;110884;-80
2023/11/22 08:41:58;;;;;;;32.10;15.10;;;;;;;-1.41;81.88;99888.30;105181;1262;96611;-80
2023/11/22 08:44:32;;;;;;;28.70;14.60;;;;;;;-1.42;81.49;99889.89;105235;1264;109223;-79
2023/11/22 08:47:05;;;;;;;30.00;15.10;;;;;;;-1.44;81.45;99894.08;104781;1274;96593;-81
2023/11/22 08:49:34;;;;;;;38.50;16.60;;;;;;;-1.42;81.65;99890.58;105280;1263;96653;-80
2023/11/22 08:52:02;;;;;;;32.70;16.10;;;;;;;-1.38;81.86;99887.23;105147;1265;109425;-80
2023/11/22 08:54:31;;;;;;;38.00;17.10;;;;;;;-1.35;81.73;99888.59;105054;1262;96646;-80
2023/11/22 08:57:02;;;;;;;32.70;14.80;;;;;;;-1.33;81.76;99884.76;105250;1265;107441;-81
2023/11/22 08:59:32;;;;;;;32.10;14.70;;;;;;;-1.35;81.54;99881.80;105209;1264;96609;-80
2023/11/22 09:02:02;;;;;;;28.20;14.50;;;;;;;-1.36;81.53;99883.38;105409;1263;96993;-80
2023/11/22 09:04:33;;;;;;;32.20;14.70;;;;;;;-1.30;81.64;99884.20;104632;1263;109540;-80
2023/11/22 09:07:06;;;;;;;30.20;13.70;;;;;;;-1.30;81.51;99887.31;105095;1271;96690;-79
2023/11/22 09:09:37;;;;;;;33.70;16.10;;;;;;;-1.31;81.44;99888.20;105184;1258;107827;-81
2023/11/22 09:12:12;;;;;;;28.60;13.50;;;;;;;-1.35;81.32;99890.50;105136;1265;97924;-82
2023/11/22 09:14:41;;;;;;;34.90;17.20;;;;;;;-1.36;81.29;99893.65;105629;1257;96601;-80
2023/11/22 09:17:09;;;;;;;30.20;14.20;;;;;;;-1.37;81.61;99893.65;105467;1262;109454;-80
2023/11/22 09:19:38;;;;;;;29.90;14.20;;;;;;;-1.36;81.50;99894.86;105455;1263;96594;-80
2023/11/22 09:22:06;;;;;;;27.70;14.10;;;;;;;-1.35;81.58;99898.86;105520;1271;107698;-80
2023/11/22 09:24:36;;;;;;;27.60;12.40;;;;;;;-1.30;81.76;99897.94;104791;1270;96699;-80
2023/11/22 09:27:05;;;;;;;26.90;13.00;;;;;;;-1.28;81.67;99894.62;105306;1257;96664;-80
2023/11/22 09:29:33;;;;;;;31.50;15.40;;;;;;;-1.25;81.57;99889.89;105367;1257;109310;-79
2023/11/22 09:32:01;;;;;;;30.80;15.20;;;;;;;-1.24;81.62;99890.39;105219;1263;96693;-80
2023/11/22 09:34:32;;;;;;;29.50;12.80;;;;;;;-1.27;81.43;99888.69;105059;1261;107603;-80
2023/11/22 09:37:00;;;;;;;33.50;15.10;;;;;;;-1.29;81.60;99894.45;105050;1257;96589;-80
2023/11/22 09:39:29;;;;;;;27.20;12.40;;;;;;;-1.29;81.37;99898.80;105485;1262;96705;-79
2023/11/22 09:42:01;;;;;;;27.20;12.70;;;;;;;-1.33;81.28;99901.98;105188;1263;108461;-80
2023/11/22 09:44:29;;;;;;;29.10;12.30;;;;;;;-1.34;81.57;99903.02;105223;1274;97634;-80
2023/11/22 09:46:57;;;;;;;34.90;14.50;;;;;;;-1.31;81.53;99903.34;105194;1261;107658;-80
2023/11/22 09:49:29;;;;;;;29.60;13.80;;;;;;;-1.30;81.50;99899.16;105049;1261;96579;-80
2023/11/22 09:52:04;;;;;;;26.80;13.00;;;;;;;-1.34;81.05;99909.12;105123;1263;96659;-80
2023/11/22 09:54:35;;;;;;;24.90;11.50;;;;;;;-1.38;81.35;99912.11;104947;1262;109931;-80
2023/11/22 09:57:08;;;;;;;26.80;11.80;;;;;;;-1.38;81.32;99914.71;105092;1264;96622;-80
2023/11/22 09:59:41;;;;;;;31.50;13.60;;;;;;;-1.34;81.75;99910.86;105013;1262;106702;-79
2023/11/22 10:02:11;;;;;;;30.20;14.00;;;;;;;-1.31;81.76;99911.88;105223;1263;96649;-80
2023/11/22 10:04:41;;;;;;;33.50;15.90;;;;;;;-1.31;81.45;99909.09;105439;1261;96532;-80
2023/11/22 10:07:10;;;;;;;25.20;12.20;;;;;;;-1.30;81.58;99913.43;105353;1266;109909;-79
2023/11/22 10:09:41;;;;;;;25.50;12.70;;;;;;;-1.29;81.42;99924.73;105277;1264;96646;-79
2023/11/22 10:12:20;;;;;;;26.00;11.10;;;;;;;-1.33;81.42;99920.41;105249;1258;106731;-80
2023/11/22 10:14:51;;;;;;;24.80;10.70;;;;;;;-1.30;81.72;99920.56;105171;1263;96612;-80
2023/11/22 10:17:20;;;;;;;24.60;11.70;;;;;;;-1.24;81.50;99926.59;105062;1262;96515;-80
2023/11/22 10:19:52;;;;;;;25.30;11.80;;;;;;;-1.25;81.54;99928.00;105245;1263;110373;-80
2023/11/22 10:22:20;;;;;;;30.60;15.10;;;;;;;-1.23;81.37;99926.42;105362;1264;97559;-80
2023/11/22 10:24:48;;;;;;;53.30;20.50;;;;;;;-1.20;81.55;99927.23;105165;1274;107555;-80
2023/11/22 10:27:17;;;;;;;36.40;16.80;;;;;;;-1.20;81.41;99933.50;105319;1273;98053;-79
2023/11/22 10:29:48;;;;;;;29.20;14.40;;;;;;;-1.22;81.44;99931.25;105307;1261;96584;-80
2023/11/22 10:32:17;;;;;;;34.50;15.70;;;;;;;-1.21;81.31;99925.33;105400;1257;109657;-79
2023/11/22 10:34:45;;;;;;;45.80;20.50;;;;;;;-1.21;81.19;99930.55;105348;1262;96647;-80
2023/11/22 10:37:13;;;;;;;51.70;24.80;;;;;;;-1.23;81.34;99936.14;105604;1261;107572;-78
2023/11/22 10:39:43;;;;;;;34.00;15.80;;;;;;;-1.23;81.51;99938.77;105218;1257;97532;-79
2023/11/22 10:42:11;;;;;;;32.80;15.70;;;;;;;-1.20;81.63;99942.20;105161;1262;97425;-79
2023/11/22 10:44:42;;;;;;;33.80;15.70;;;;;;;-1.14;81.60;99947.37;104939;1261;108671;-80
2023/11/22 10:47:17;;;;;;;52.80;21.00;;;;;;;-1.09;81.44;99955.33;105128;1275;96587;-80
2023/11/22 10:49:46;;;;;;;52.70;23.30;;;;;;;-1.14;81.17;99962.70;105240;1263;107329;-79
2023/11/22 10:52:18;;;;;;;53.10;22.80;;;;;;;-1.15;81.30;99967.74;105409;1263;96636;-80
2023/11/22 10:54:51;;;;;;;32.00;14.40;;;;;;;-1.17;81.18;99979.25;105315;1257;96571;-79
2023/11/22 10:57:26;;;;;;;29.10;12.80;;;;;;;-1.17;81.10;99992.31;104888;1263;109513;-79
2023/11/22 11:00:07;;;;;;;30.90;13.60;;;;;;;-1.24;80.87;99995.52;105018;1276;96715;-79
2023/11/22 11:04:10;;;;;;;26.70;12.50;;;;;;;-1.18;81.56;99995.45;102401;1293;649338;-79
2023/11/22 11:06:37;;;;;;;28.10;13.90;;;;;;;-1.12;81.39;100000.27;104880;1266;94710;-79
2023/11/22 11:09:06;;;;;;;25.60;11.40;;;;;;;-1.13;81.22;100006.55;104923;1265;95234;-79
2023/11/22 11:11:40;;;;;;;28.10;12.80;;;;;;;-1.14;81.17;100006.20;105338;1254;107225;-81
2023/11/22 11:14:11;;;;;;;26.60;12.10;;;;;;;-1.17;80.78;100000.84;105498;1257;95430;-79
2023/11/22 11:16:41;;;;;;;29.70;12.90;;;;;;;-1.18;80.72;99999.62;105318;1258;386255;-80
2023/11/22 11:19:09;;;;;;;27.20;11.60;;;;;;;-1.17;80.98;100001.36;105526;1257;94245;-79